Time;durP1;ratioP1;P1;durP2;ratioP2;P2;SDS_P1;SDS_P2;PMS_P1;PMS_P2;Temp;Humidity;BMP_temperature;BMP_pressure;BME280_temperature;BME280_humidity;BME280_pressure;Samples;Min_cycle;Max_cycle;Signal;HPM_P1;HPM_P2
2023/06/12 00:02:02;;;;;;;17.83;5.63;;;;;;;14.00;85.79;95837.28;5116282;28;20051;-64
2023/06/12 00:04:30;;;;;;;6.78;5.78;;;;;;;14.01;86.17;95844.25;5116347;28;20114;-65
2023/06/12 00:06:58;;;;;;;11.52;5.55;;;;;;;14.02;86.37;95847.69;5116199;28;20093;-66
2023/06/12 00:09:25;;;;;;;7.72;5.53;;;;;;;14.02;86.07;95847.69;5116249;28;20044;-65
2023/06/12 00:11:52;;;;;;;9.50;5.85;;;;;;;14.00;87.10;95845.16;5116002;28;20062;-65
2023/06/12 00:14:19;;;;;;;11.60;6.00;;;;;;;14.00;87.76;95849.59;5116087;28;20047;-66
2023/06/12 00:16:47;;;;;;;9.57;5.65;;;;;;;14.04;87.53;95851.09;5116039;28;20079;-66
2023/06/12 00:19:15;;;;;;;6.35;5.72;;;;;;;14.01;88.19;95851.28;5116224;28;20050;-65
2023/06/12 00:21:43;;;;;;;13.57;6.82;;;;;;;14.07;88.25;95850.03;5115677;28;20477;-66
2023/06/12 00:24:10;;;;;;;11.85;5.70;;;;;;;14.07;87.02;95850.03;5115844;28;20074;-66
2023/06/12 00:26:37;;;;;;;7.10;5.68;;;;;;;14.03;86.42;95854.66;5115872;28;20497;-65
2023/06/12 00:29:05;;;;;;;8.98;5.15;;;;;;;14.01;86.55;95857.38;5115914;28;20374;-65
2023/06/12 00:31:32;;;;;;;6.35;5.32;;;;;;;13.98;86.38;95860.22;5115710;28;20470;-65
2023/06/12 00:33:59;;;;;;;7.75;5.30;;;;;;;13.96;86.21;95858.59;5115611;28;20553;-65
2023/06/12 00:36:26;;;;;;;15.50;6.05;;;;;;;13.92;86.63;95850.06;5115684;28;20047;-65
2023/06/12 00:38:55;;;;;;;9.20;5.97;;;;;;;13.83;86.40;95850.63;5115648;28;20421;-65
2023/06/12 00:41:23;;;;;;;9.23;5.82;;;;;;;13.81;85.86;95855.97;5115577;28;20047;-64
2023/06/12 00:43:50;;;;;;;7.05;5.40;;;;;;;13.74;87.41;95855.53;5115555;28;20083;-65
2023/06/12 00:46:17;;;;;;;9.27;5.25;;;;;;;13.74;87.64;95850.28;5115625;28;20135;-68
2023/06/12 00:48:44;;;;;;;11.82;6.70;;;;;;;13.80;87.12;95846.41;5115469;28;20044;-65
2023/06/12 00:51:11;;;;;;;9.20;5.60;;;;;;;13.83;86.65;95854.13;5115512;28;20055;-65
2023/06/12 00:53:38;;;;;;;14.38;5.78;;;;;;;13.85;85.66;95851.41;5115309;28;20054;-65
2023/06/12 00:56:07;;;;;;;12.35;6.15;;;;;;;13.77;85.99;95850.09;5115317;28;20079;-66
2023/06/12 00:58:35;;;;;;;8.25;5.90;;;;;;;13.68;87.62;95841.91;5115248;28;20382;-66
2023/06/12 01:01:03;;;;;;;9.05;5.38;;;;;;;13.59;88.02;95854.69;5115278;28;20481;-66
2023/06/12 01:03:32;;;;;;;10.75;5.63;;;;;;;13.60;87.68;95851.13;5115188;28;20134;-66
2023/06/12 01:05:59;;;;;;;19.10;7.18;;;;;;;13.62;87.18;95853.66;5115217;28;20075;-65
2023/06/12 01:08:31;;;;;;;6.28;5.07;;;;;;;13.62;86.90;95844.00;5115138;28;20105;-66
2023/06/12 01:11:02;;;;;;;6.90;6.20;;;;;;;13.63;87.97;95858.81;5115030;28;20112;-65
2023/06/12 01:13:33;;;;;;;5.80;5.30;;;;;;;13.70;88.21;95853.19;5114927;28;20409;-65
2023/06/12 01:16:00;;;;;;;10.23;5.47;;;;;;;13.71;87.20;95853.09;5114852;28;20101;-66
2023/06/12 01:18:29;;;;;;;7.88;5.82;;;;;;;13.72;86.63;95851.28;5115182;28;20401;-65
2023/06/12 01:20:58;;;;;;;11.02;5.10;;;;;;;13.70;85.71;95855.81;5114950;28;20062;-66
2023/06/12 01:24:01;;;;;;;6.40;5.35;;;;;;;13.58;85.25;95858.22;5114860;28;20059;-66
2023/06/12 01:26:54;;;;;;;15.10;5.75;;;;;;;13.57;86.32;95861.00;5114959;28;20134;-64
2023/06/12 01:29:50;;;;;;;8.52;6.15;;;;;;;13.56;85.98;95868.00;5115078;28;20058;-65
2023/06/12 01:32:20;;;;;;;6.20;4.93;;;;;;;13.58;85.66;95865.28;5114409;28;20055;-65
2023/06/12 01:34:51;;;;;;;9.80;5.93;;;;;;;13.53;86.25;95868.19;5113849;28;20040;-65
2023/06/12 01:37:31;;;;;;;6.78;5.60;;;;;;;13.44;87.99;95860.84;5114600;28;20112;-64
2023/06/12 01:39:59;;;;;;;8.02;6.20;;;;;;;13.48;87.93;95862.34;5114482;28;20130;-66
2023/06/12 01:42:28;;;;;;;12.57;5.75;;;;;;;13.52;87.85;95859.47;5114343;28;20048;-65
2023/06/12 01:44:56;;;;;;;10.13;6.78;;;;;;;13.61;88.10;95862.47;5114286;28;20043;-65
2023/06/12 01:47:24;;;;;;;9.32;5.43;;;;;;;13.66;87.97;95862.22;5114400;28;20043;-65
2023/06/12 01:49:52;;;;;;;7.60;5.57;;;;;;;13.67;87.82;95869.13;5114728;28;20052;-66
2023/06/12 01:52:19;;;;;;;8.95;5.95;;;;;;;13.70;88.54;95866.31;5114534;28;20051;-66
2023/06/12 01:54:48;;;;;;;7.35;6.13;;;;;;;13.77;89.48;95875.53;5114348;28;20500;-66
2023/06/12 01:57:19;;;;;;;8.25;5.78;;;;;;;13.80;89.03;95863.97;5114069;28;20485;-65
2023/06/12 01:59:46;;;;;;;;;;;;;;;13.79;88.64;95857.88;5114455;28;20047;-66
2023/06/12 02:02:13;;;;;;;8.80;5.85;;;;;;;13.79;90.78;95868.41;5113897;28;20030;-66
2023/06/12 02:04:41;;;;;;;14.02;6.55;;;;;;;13.80;90.93;95866.59;5113961;28;20531;-66
2023/06/12 02:07:08;;;;;;;9.98;6.70;;;;;;;13.83;91.90;95863.78;5114111;28;20507;-67
2023/06/12 02:09:35;;;;;;;7.60;6.18;;;;;;;13.88;91.56;95865.16;5113968;28;20043;-65
2023/06/12 02:12:02;;;;;;;9.52;6.18;;;;;;;13.91;90.94;95861.53;5113796;28;20480;-66
2023/06/12 02:14:29;;;;;;;11.50;6.47;;;;;;;13.92;90.45;95862.34;5113798;28;20497;-66
2023/06/12 02:16:56;;;;;;;8.23;5.85;;;;;;;13.97;89.88;95865.56;5113995;28;20044;-66
2023/06/12 02:19:25;;;;;;;10.18;6.10;;;;;;;13.99;89.29;95867.16;5113747;28;20047;-65
2023/06/12 02:21:54;;;;;;;10.48;6.07;;;;;;;13.97;88.99;95865.56;5113710;28;20051;-65
2023/06/12 02:24:21;;;;;;;12.30;6.82;;;;;;;13.97;88.74;95868.19;5113732;28;20050;-65
2023/06/12 02:26:48;;;;;;;9.10;5.93;;;;;;;14.00;88.82;95868.81;5113647;28;20123;-64
2023/06/12 02:29:15;;;;;;;15.65;5.38;;;;;;;13.95;87.60;95865.66;5113543;28;20047;-64
2023/06/12 02:31:42;;;;;;;6.43;5.30;;;;;;;13.97;87.33;95869.00;5113539;28;20047;-65
2023/06/12 02:34:10;;;;;;;6.05;5.30;;;;;;;13.94;87.29;95871.81;5113414;28;20059;-65
2023/06/12 02:36:39;;;;;;;12.70;5.63;;;;;;;13.90;87.96;95876.44;5113566;28;20082;-65
2023/06/12 02:39:08;;;;;;;11.57;5.65;;;;;;;13.90;87.77;95876.44;5113552;28;20417;-67
2023/06/12 02:41:36;;;;;;;5.22;4.72;;;;;;;13.92;88.38;95883.38;5113474;28;20546;-65
2023/06/12 02:44:03;;;;;;;9.27;5.85;;;;;;;13.91;88.22;95882.56;5113393;28;20420;-65
2023/06/12 02:46:30;;;;;;;8.85;5.55;;;;;;;13.89;88.16;95882.66;5113329;28;20131;-67
2023/06/12 02:48:57;;;;;;;7.43;5.50;;;;;;;13.83;88.06;95880.41;5113719;28;20119;-66
2023/06/12 02:51:24;;;;;;;10.60;5.20;;;;;;;13.86;87.53;95885.47;5113295;28;20079;-65
2023/06/12 02:53:52;;;;;;;11.38;4.70;;;;;;;13.82;87.29;95893.63;5113307;28;20055;-65
2023/06/12 02:56:20;;;;;;;6.60;5.40;;;;;;;13.82;87.46;95896.28;5113321;28;20071;-66
2023/06/12 02:58:47;;;;;;;7.90;5.65;;;;;;;13.81;87.89;95897.22;5113247;28;20496;-66
2023/06/12 03:01:16;;;;;;;11.90;5.80;;;;;;;13.82;87.94;95896.28;5113337;28;20482;-66
2023/06/12 03:03:44;;;;;;;10.52;5.25;;;;;;;13.81;87.90;95886.69;5113210;28;20075;-66
2023/06/12 03:06:11;;;;;;;8.77;5.55;;;;;;;13.86;88.49;95898.63;5113249;28;20040;-66
2023/06/12 03:08:39;;;;;;;11.52;5.75;;;;;;;13.90;88.82;95888.75;5113283;28;20485;-66
2023/06/12 03:11:06;;;;;;;11.80;5.20;;;;;;;13.95;87.92;95891.94;5113108;28;20081;-65
2023/06/12 03:13:35;;;;;;;10.77;5.65;;;;;;;13.99;88.51;95897.84;5113253;28;20082;-66
2023/06/12 03:16:04;;;;;;;6.22;5.60;;;;;;;14.10;89.16;95892.78;5113239;28;20135;-66
2023/06/12 03:18:31;;;;;;;5.88;5.28;;;;;;;14.21;89.26;95902.59;5113136;28;20052;-66
2023/06/12 03:20:58;;;;;;;9.32;5.85;;;;;;;14.33;89.11;95898.34;5113114;28;20044;-66
2023/06/12 03:23:25;;;;;;;7.60;5.72;;;;;;;14.38;88.98;95903.31;5112908;28;20365;-66
2023/06/12 03:25:52;;;;;;;12.77;4.78;;;;;;;14.49;89.08;95902.66;5113049;28;20126;-66
2023/06/12 03:28:19;;;;;;;8.07;5.30;;;;;;;14.61;88.77;95904.50;5112955;28;20135;-67
2023/06/12 03:30:48;;;;;;;8.32;5.60;;;;;;;14.84;89.28;95907.44;5112979;28;20507;-65
2023/06/12 03:33:15;;;;;;;5.20;4.70;;;;;;;15.05;88.06;95904.34;5112767;28;20047;-66
2023/06/12 03:35:42;;;;;;;10.65;4.95;;;;;;;15.33;87.32;95910.41;5113005;28;20443;-65
2023/06/12 03:38:09;;;;;;;10.35;3.78;;;;;;;15.60;85.49;95904.22;5112985;28;20142;-65
2023/06/12 03:40:37;;;;;;;4.85;4.35;;;;;;;15.91;84.53;95910.00;5112877;28;20048;-65
2023/06/12 03:43:04;;;;;;;8.75;4.95;;;;;;;16.24;83.87;95913.03;5112936;28;20063;-67
2023/06/12 03:45:31;;;;;;;8.07;4.32;;;;;;;16.59;82.80;95906.19;5112921;28;20052;-66
2023/06/12 03:48:00;;;;;;;4.45;3.67;;;;;;;16.84;81.25;95912.31;5112873;28;20481;-66
2023/06/12 03:50:27;;;;;;;5.78;3.80;;;;;;;17.13;80.39;95911.13;5113010;28;20500;-66
2023/06/12 03:52:54;;;;;;;5.20;3.70;;;;;;;17.45;79.92;95914.97;5113068;28;20124;-65
2023/06/12 03:55:23;;;;;;;6.53;3.72;;;;;;;17.84;78.97;95907.56;5112830;28;20050;-66
2023/06/12 03:57:50;;;;;;;11.23;4.00;;;;;;;18.31;76.79;95904.81;5114332;28;20503;-66
2023/06/12 04:00:19;;;;;;;5.65;3.58;;;;;;;18.81;76.02;95908.78;5116390;28;20047;-65
2023/06/12 04:02:46;;;;;;;4.88;3.55;;;;;;;19.29;74.40;95916.47;5116203;28;20043;-66
2023/06/12 04:05:15;;;;;;;6.72;3.40;;;;;;;19.73;71.93;95911.03;5116345;28;20469;-66
2023/06/12 04:07:42;;;;;;;8.40;3.50;;;;;;;20.06;70.24;95916.25;5116326;28;20044;-66
2023/06/12 04:10:10;;;;;;;6.55;4.07;;;;;;;20.42;67.85;95921.13;5098026;28;20077;-65
2023/06/12 04:12:38;;;;;;;4.18;3.33;;;;;;;20.86;66.83;95918.16;5116164;28;20079;-65
2023/06/12 04:15:06;;;;;;;6.15;4.03;;;;;;;21.31;64.71;95918.63;5116228;28;20079;-66
2023/06/12 04:17:34;;;;;;;6.57;3.53;;;;;;;21.73;63.16;95916.63;5115997;28;20477;-65
2023/06/12 04:20:01;;;;;;;8.88;4.10;;;;;;;22.06;62.50;95915.28;5116110;28;20477;-65
2023/06/12 04:22:30;;;;;;;7.00;3.92;;;;;;;22.40;61.09;95913.03;5115987;28;20055;-65
2023/06/12 04:25:00;;;;;;;6.22;3.88;;;;;;;22.79;60.78;95920.00;5115896;28;20104;-66
2023/06/12 04:27:29;;;;;;;5.47;3.67;;;;;;;23.10;60.06;95923.16;5115981;28;20489;-65
2023/06/12 04:29:57;;;;;;;8.65;3.80;;;;;;;23.48;58.50;95927.50;5115989;28;20109;-66
2023/06/12 04:32:24;;;;;;;5.38;3.78;;;;;;;23.84;57.46;95926.59;5115668;28;20472;-66
2023/06/12 04:34:52;;;;;;;11.95;3.78;;;;;;;24.20;56.02;95929.16;5115718;28;20055;-66
2023/06/12 04:37:19;;;;;;;8.02;3.70;;;;;;;24.46;53.80;95927.44;5115849;28;20085;-66
2023/06/12 04:39:48;;;;;;;6.75;3.53;;;;;;;24.77;53.97;95921.53;5115631;28;20135;-67
2023/06/12 04:42:16;;;;;;;9.85;3.60;;;;;;;24.99;53.26;95925.44;5115681;28;20047;-66
2023/06/12 04:44:46;;;;;;;5.53;3.72;;;;;;;25.09;51.81;95924.47;5115501;28;20048;-66
2023/06/12 04:47:14;;;;;;;3.75;3.35;;;;;;;25.23;52.00;95926.50;5115654;28;20237;-66
2023/06/12 04:49:43;;;;;;;8.30;4.03;;;;;;;25.33;51.51;95921.00;5115574;28;20122;-66
2023/06/12 04:52:12;;;;;;;4.65;3.72;;;;;;;25.44;51.43;95925.19;5115799;28;20210;-66
2023/06/12 04:54:41;;;;;;;6.85;4.05;;;;;;;25.52;50.82;95929.69;5115760;28;20052;-66
2023/06/12 04:57:12;;;;;;;14.02;3.90;;;;;;;25.67;50.75;95931.72;5115306;28;20226;-66
2023/06/12 04:59:39;;;;;;;8.45;3.45;;;;;;;25.88;51.10;95938.41;5115272;28;20058;-66
2023/06/12 05:02:08;;;;;;;5.55;3.60;;;;;;;25.97;50.35;95927.50;5115151;28;20048;-66
2023/06/12 05:04:37;;;;;;;7.30;3.85;;;;;;;26.10;49.38;95939.53;5115100;28;20052;-66
2023/06/12 05:07:05;;;;;;;5.53;3.17;;;;;;;26.29;49.76;95937.47;5115096;28;20540;-66
2023/06/12 05:09:33;;;;;;;7.95;3.00;;;;;;;26.16;47.14;95938.84;5114969;28;20047;-65
2023/06/12 05:12:02;;;;;;;5.40;3.15;;;;;;;26.15;49.57;95929.13;5115373;28;20089;-65
2023/06/12 05:14:32;;;;;;;4.80;2.92;;;;;;;26.13;46.58;95944.56;5115003;28;20044;-65
2023/06/12 05:17:00;;;;;;;9.18;3.55;;;;;;;26.11;48.50;95946.56;5115264;28;20047;-65
2023/06/12 05:19:27;;;;;;;7.15;3.40;;;;;;;26.34;45.92;95946.69;5115158;28;20130;-65
2023/06/12 05:21:54;;;;;;;5.22;3.25;;;;;;;26.41;45.79;95938.81;5114853;28;20481;-66
2023/06/12 05:24:21;;;;;;;5.15;3.80;;;;;;;26.46;49.98;95939.09;5114718;28;20048;-66
2023/06/12 05:26:50;;;;;;;9.40;3.50;;;;;;;26.58;49.24;95942.25;5114811;28;20105;-65
2023/06/12 05:29:17;;;;;;;5.68;3.35;;;;;;;26.85;50.02;95942.78;5114753;28;20057;-65
2023/06/12 05:31:48;;;;;;;7.13;3.65;;;;;;;27.17;49.19;95934.75;5114650;28;20044;-65
2023/06/12 05:34:15;;;;;;;8.57;3.67;;;;;;;27.20;48.42;95946.97;5114541;28;20047;-66
2023/06/12 05:36:42;;;;;;;9.55;3.60;;;;;;;27.48;48.00;95947.28;5114678;28;20099;-66
2023/06/12 05:39:09;;;;;;;7.43;3.25;;;;;;;27.79;46.56;95955.44;5114523;28;20086;-65
2023/06/12 05:41:36;;;;;;;5.53;3.40;;;;;;;27.98;45.24;95948.72;5114595;28;20048;-66
2023/06/12 05:44:05;;;;;;;7.93;3.00;;;;;;;28.25;44.04;95952.66;5114385;28;20047;-65
2023/06/12 05:46:32;;;;;;;5.00;2.97;;;;;;;28.51;43.61;95954.06;5114504;28;20126;-65
2023/06/12 05:49:00;;;;;;;8.02;3.63;;;;;;;28.78;43.23;95955.44;5114453;28;20047;-65
2023/06/12 05:51:27;;;;;;;9.55;3.25;;;;;;;28.94;42.79;95957.94;5114379;28;20549;-66
2023/06/12 05:53:54;;;;;;;7.45;3.42;;;;;;;28.82;43.69;95960.25;5114435;28;20131;-65
2023/06/12 05:56:22;;;;;;;8.48;3.50;;;;;;;29.04;43.24;95959.50;5114316;28;20075;-66
2023/06/12 05:58:49;;;;;;;7.43;3.25;;;;;;;29.23;42.63;95963.44;5114329;28;20130;-66
2023/06/12 06:01:21;;;;;;;5.55;3.60;;;;;;;29.54;42.24;95956.06;5114182;28;20048;-66
2023/06/12 06:03:50;;;;;;;9.57;3.20;;;;;;;29.67;41.72;95950.81;5114024;28;20484;-66
2023/06/12 06:06:19;;;;;;;7.28;3.22;;;;;;;29.71;41.45;95949.41;5114153;28;20560;-66
2023/06/12 06:08:46;;;;;;;6.60;3.28;;;;;;;29.79;41.61;95953.00;5113973;28;20127;-66
2023/06/12 06:11:13;;;;;;;4.78;3.25;;;;;;;29.46;39.87;95952.47;5114129;28;20050;-66
2023/06/12 06:13:43;;;;;;;8.25;3.65;;;;;;;29.08;40.08;95964.28;5114085;28;20078;-66
2023/06/12 06:16:10;;;;;;;4.80;3.10;;;;;;;28.85;41.78;95972.47;5113942;28;20128;-66
2023/06/12 06:18:37;;;;;;;9.85;3.63;;;;;;;28.71;41.23;95964.25;5113870;28;20047;-65
2023/06/12 06:21:05;;;;;;;9.43;3.40;;;;;;;28.63;42.43;95970.56;5113266;28;20044;-65
2023/06/12 06:23:34;;;;;;;9.27;4.43;;;;;;;28.53;41.71;95979.94;5113743;28;20490;-65
2023/06/12 06:26:01;;;;;;;16.25;4.57;;;;;;;28.09;41.54;95969.78;5113791;28;20071;-65
2023/06/12 06:28:28;;;;;;;9.57;4.50;;;;;;;27.91;41.97;95967.44;5113633;28;20120;-66
2023/06/12 06:30:55;;;;;;;9.75;4.40;;;;;;;27.82;43.78;95973.91;5113584;28;20062;-66
2023/06/12 06:33:22;;;;;;;13.68;3.95;;;;;;;27.53;42.83;95970.91;5113516;28;20127;-66
2023/06/12 06:35:49;;;;;;;5.80;3.92;;;;;;;27.36;42.59;95968.34;5113784;28;20052;-66
2023/06/12 06:38:21;;;;;;;6.15;3.33;;;;;;;26.83;42.84;95971.66;5113567;28;20058;-65
2023/06/12 06:40:49;;;;;;;11.13;4.60;;;;;;;26.23;45.49;95974.66;5113541;28;20090;-67
2023/06/12 06:43:17;;;;;;;9.00;3.45;;;;;;;25.86;45.83;95984.09;5113736;28;20076;-66
2023/06/12 06:45:44;;;;;;;12.15;4.05;;;;;;;25.64;47.67;95980.25;5113446;28;20079;-65
2023/06/12 06:48:13;;;;;;;12.48;4.18;;;;;;;25.40;45.97;95982.69;5113454;28;20134;-68
2023/06/12 06:50:40;;;;;;;8.93;4.43;;;;;;;25.41;47.32;95980.88;5113374;28;20043;-67
2023/06/12 06:53:07;;;;;;;8.55;3.78;;;;;;;25.42;46.80;95986.06;5113789;28;20116;-67
2023/06/12 06:55:35;;;;;;;7.65;3.90;;;;;;;25.07;49.11;95988.84;5113338;28;20040;-65
2023/06/12 06:58:04;;;;;;;6.10;3.80;;;;;;;24.90;49.17;95985.28;5113305;28;20475;-65
2023/06/12 07:00:31;;;;;;;8.05;3.53;;;;;;;24.75;48.42;95990.38;5113695;28;20050;-65
2023/06/12 07:02:58;;;;;;;7.55;3.42;;;;;;;24.45;49.37;95988.09;5113242;28;20447;-66
2023/06/12 07:05:27;;;;;;;7.40;3.75;;;;;;;24.30;48.81;95990.50;5113313;28;20056;-67
2023/06/12 07:07:54;;;;;;;6.93;3.88;;;;;;;24.43;49.59;95984.72;5113629;28;20077;-66
2023/06/12 07:10:21;;;;;;;5.97;4.13;;;;;;;24.67;50.61;95977.81;5113346;28;20124;-66
2023/06/12 07:12:56;;;;;;;8.57;3.92;;;;;;;24.72;49.86;95980.00;5113214;28;20540;-65
2023/06/12 07:15:25;;;;;;;9.25;3.90;;;;;;;24.85;50.18;95982.22;5113487;28;20069;-65
2023/06/12 07:17:52;;;;;;;6.07;3.90;;;;;;;24.81;49.64;95975.53;5113194;28;20080;-65
2023/06/12 07:20:19;;;;;;;6.75;3.80;;;;;;;25.18;51.31;95979.66;5113154;28;20056;-65
2023/06/12 07:22:46;;;;;;;9.00;3.60;;;;;;;25.51;48.34;95976.19;5113309;28;20097;-67
2023/06/12 07:25:14;;;;;;;8.55;3.72;;;;;;;25.41;48.16;95978.19;5113348;28;20048;-65
2023/06/12 07:27:41;;;;;;;4.60;3.72;;;;;;;25.18;48.63;95984.16;5113172;28;20065;-65
2023/06/12 07:30:09;;;;;;;6.82;3.42;;;;;;;24.50;50.15;95979.56;5113296;28;20044;-67
2023/06/12 07:32:38;;;;;;;7.15;3.85;;;;;;;24.60;51.44;95976.78;5113899;28;20562;-65
2023/06/12 07:35:06;;;;;;;18.95;4.40;;;;;;;24.94;51.24;95983.09;5117023;28;20051;-65
2023/06/12 07:37:35;;;;;;;8.25;4.25;;;;;;;24.98;49.03;95971.94;5116953;28;20127;-66
2023/06/12 07:40:07;;;;;;;7.45;3.70;;;;;;;25.17;50.21;95971.81;5116841;28;20047;-68
2023/06/12 07:42:35;;;;;;;9.80;4.00;;;;;;;25.31;50.59;95970.34;5116812;28;20048;-66
2023/06/12 07:45:02;;;;;;;6.65;3.47;;;;;;;25.45;48.69;95971.50;5116845;28;20134;-67
2023/06/12 07:47:30;;;;;;;9.50;4.20;;;;;;;25.50;49.05;95971.84;5116838;28;20101;-65
2023/06/12 07:49:59;;;;;;;7.78;3.60;;;;;;;25.43;51.42;95960.97;5116788;28;20047;-67
2023/06/12 07:52:26;;;;;;;7.18;4.10;;;;;;;25.16;48.36;95970.97;5116569;28;20052;-66
2023/06/12 07:54:53;;;;;;;6.53;3.97;;;;;;;24.80;50.30;95976.53;5116674;28;20056;-65
2023/06/12 07:57:21;;;;;;;7.63;4.05;;;;;;;24.81;51.51;95968.34;5116503;28;20108;-66
2023/06/12 07:59:48;;;;;;;9.55;5.07;;;;;;;25.16;50.14;95970.16;5116782;28;20040;-65
2023/06/12 08:02:16;;;;;;;7.45;4.25;;;;;;;25.31;49.93;95971.16;5116747;28;20075;-67
2023/06/12 08:04:44;;;;;;;7.63;4.07;;;;;;;25.20;50.89;95968.81;5116325;28;20105;-67
2023/06/12 08:07:15;;;;;;;11.25;4.50;;;;;;;25.21;48.98;95973.16;5116492;28;20138;-65
2023/06/12 08:09:43;;;;;;;9.00;4.00;;;;;;;25.45;49.26;95967.00;5116338;28;20047;-66
2023/06/12 08:12:12;;;;;;;7.90;4.50;;;;;;;25.32;48.62;95969.31;5116222;28;20043;-66
2023/06/12 08:14:39;;;;;;;9.50;4.20;;;;;;;25.18;52.01;95968.13;5116229;28;20087;-66
2023/06/12 08:17:08;;;;;;;12.25;4.55;;;;;;;25.41;50.06;95965.66;5116119;28;20047;-66
2023/06/12 08:19:36;;;;;;;9.10;4.22;;;;;;;25.74;52.35;95963.00;5116226;28;20097;-67
2023/06/12 08:22:07;;;;;;;10.63;4.10;;;;;;;26.10;49.57;95959.09;5116180;28;20043;-68
2023/06/12 08:24:36;;;;;;;7.15;4.20;;;;;;;26.33;47.85;95965.63;5116023;28;20083;-67
2023/06/12 08:27:04;;;;;;;10.52;4.00;;;;;;;26.41;48.79;95954.88;5115941;28;20044;-66
2023/06/12 08:29:31;;;;;;;6.80;4.13;;;;;;;26.27;47.29;95950.22;5115991;28;20552;-66
2023/06/12 08:31:58;;;;;;;7.28;3.90;;;;;;;25.94;47.29;95957.28;5116204;28;20059;-67
2023/06/12 08:34:26;;;;;;;5.57;3.95;;;;;;;26.02;46.11;95958.28;5115607;28;20485;-65
2023/06/12 08:36:54;;;;;;;13.55;3.85;;;;;;;25.85;48.93;95952.94;5116000;28;20130;-66
2023/06/12 08:39:21;;;;;;;5.47;3.70;;;;;;;25.54;48.19;95964.31;5115665;28;20047;-66
2023/06/12 08:41:59;;;;;;;4.22;3.70;;;;;;;24.77;49.19;95958.13;5115783;28;20052;-66
2023/06/12 08:44:27;;;;;;;8.45;4.43;;;;;;;24.49;51.66;95956.53;5115073;28;20135;-68
2023/06/12 08:46:56;;;;;;;5.57;3.08;;;;;;;25.20;53.50;95950.06;5115604;28;20043;-66
2023/06/12 08:49:24;;;;;;;6.00;3.60;;;;;;;25.68;50.10;95958.34;5115864;28;20108;-68
2023/06/12 08:51:51;;;;;;;7.50;3.90;;;;;;;25.76;49.52;95962.00;5115473;28;20047;-68
2023/06/12 08:54:19;;;;;;;7.55;3.97;;;;;;;25.74;48.57;95960.31;5115535;28;20043;-67
2023/06/12 08:56:47;;;;;;;5.80;3.30;;;;;;;25.55;48.78;95952.63;5115512;28;20048;-67
2023/06/12 08:59:16;;;;;;;7.63;3.83;;;;;;;25.58;47.66;95962.97;5115323;28;20044;-65
2023/06/12 09:01:45;;;;;;;8.93;3.90;;;;;;;25.14;49.13;95956.09;5115201;28;20052;-66
2023/06/12 09:04:19;;;;;;;6.97;3.97;;;;;;;25.18;51.36;95952.06;5115249;28;20048;-67
2023/06/12 09:06:47;;;;;;;4.85;3.90;;;;;;;25.44;52.69;95949.28;5115359;28;20047;-66
2023/06/12 09:09:14;;;;;;;9.02;3.88;;;;;;;25.76;49.45;95959.34;5115194;28;20047;-68
2023/06/12 09:11:41;;;;;;;4.53;3.67;;;;;;;25.45;47.04;95953.63;5115159;28;20101;-65
2023/06/12 09:14:08;;;;;;;6.80;3.75;;;;;;;24.90;49.50;95947.84;5115278;28;20054;-66
2023/06/12 09:16:37;;;;;;;5.38;3.58;;;;;;;24.91;49.83;95946.84;5114962;28;20052;-65
2023/06/12 09:19:04;;;;;;;8.13;4.10;;;;;;;24.80;50.10;95933.75;5115066;28;20043;-67
2023/06/12 09:21:31;;;;;;;5.85;3.83;;;;;;;24.94;51.59;95926.94;5114943;28;20039;-68
2023/06/12 09:23:58;;;;;;;5.53;3.42;;;;;;;25.53;51.75;95927.84;5114829;28;20504;-66
2023/06/12 09:26:25;;;;;;;7.32;3.97;;;;;;;25.87;48.26;95934.88;5115079;28;20048;-66
2023/06/12 09:28:54;;;;;;;8.48;3.22;;;;;;;25.79;48.14;95929.56;5114789;28;20079;-66
2023/06/12 09:31:21;;;;;;;6.78;3.30;;;;;;;25.38;48.59;95925.00;5114808;28;20119;-65
2023/06/12 09:33:52;;;;;;;5.95;3.67;;;;;;;25.46;49.92;95927.66;5114500;28;20039;-67
2023/06/12 09:36:20;;;;;;;6.20;3.63;;;;;;;25.53;51.21;95919.81;5114661;28;20131;-67
2023/06/12 09:38:49;;;;;;;6.15;3.70;;;;;;;25.61;48.70;95920.69;5114610;28;20044;-66
2023/06/12 09:41:16;;;;;;;5.38;3.75;;;;;;;25.53;48.38;95909.97;5114492;28;20043;-66
2023/06/12 09:43:43;;;;;;;8.82;4.00;;;;;;;25.01;49.50;95916.44;5114557;28;20130;-67
2023/06/12 09:46:10;;;;;;;10.68;3.90;;;;;;;25.32;54.52;95913.97;5114474;28;20087;-66
2023/06/12 09:48:39;;;;;;;8.90;3.80;;;;;;;25.52;49.67;95910.94;5114355;28;20101;-67
2023/06/12 09:51:08;;;;;;;8.30;4.47;;;;;;;25.52;48.15;95910.94;5114314;28;20126;-66
2023/06/12 09:53:39;;;;;;;7.35;4.30;;;;;;;25.66;47.43;95912.16;5114451;28;20473;-67
2023/06/12 09:56:07;;;;;;;6.70;3.83;;;;;;;25.84;49.04;95914.63;5113415;28;20047;-68
2023/06/12 09:58:39;;;;;;;6.72;3.42;;;;;;;25.81;47.64;95908.78;5114173;28;20075;-68
2023/06/12 10:01:07;;;;;;;8.18;3.85;;;;;;;25.85;48.47;95913.63;5114049;28;20078;-66
2023/06/12 10:03:37;;;;;;;5.60;3.78;;;;;;;26.12;46.28;95903.50;5114145;28;20503;-68
2023/06/12 10:06:07;;;;;;;6.13;3.85;;;;;;;26.52;47.62;95904.56;5114067;28;20134;-67
2023/06/12 10:08:35;;;;;;;4.97;3.78;;;;;;;26.83;48.20;95906.44;5113979;28;20047;-68
2023/06/12 10:11:04;;;;;;;4.90;3.85;;;;;;;26.45;45.70;95905.28;5113997;28;20557;-67
2023/06/12 10:13:32;;;;;;;8.15;4.47;;;;;;;26.22;46.07;95899.81;5113828;28;20127;-68
2023/06/12 10:15:59;;;;;;;6.18;3.65;;;;;;;26.18;47.42;95906.50;5113957;28;20500;-69
2023/06/12 10:18:28;;;;;;;7.65;3.95;;;;;;;25.54;46.47;95902.75;5113817;28;20500;-66
2023/06/12 10:20:55;;;;;;;7.07;3.55;;;;;;;25.68;48.82;95893.25;5113880;28;20127;-67
2023/06/12 10:23:25;;;;;;;9.27;3.85;;;;;;;25.65;47.48;95899.78;5113864;28;20047;-67
2023/06/12 10:25:52;;;;;;;7.32;3.65;;;;;;;25.55;47.75;95891.06;5113698;28;20094;-67
2023/06/12 10:28:20;;;;;;;8.65;3.72;;;;;;;25.34;48.58;95898.56;5113681;28;20554;-67
2023/06/12 10:31:10;;;;;;;8.70;3.97;;;;;;;25.72;48.04;95898.09;5114108;28;20071;-66
2023/06/12 10:33:38;;;;;;;5.95;4.35;;;;;;;25.90;48.40;95888.16;5113407;28;20074;-67
2023/06/12 10:36:11;;;;;;;10.13;4.13;;;;;;;25.94;48.11;95894.84;5113822;28;20046;-67
2023/06/12 10:38:48;;;;;;;6.72;3.90;;;;;;;26.05;47.10;95896.34;5113571;28;20506;-68
2023/06/12 10:41:31;;;;;;;10.68;3.97;;;;;;;25.87;47.10;95900.06;5113660;28;20044;-68
2023/06/12 10:43:58;;;;;;;12.10;3.85;;;;;;;25.58;45.67;95902.25;5113609;28;20047;-67
2023/06/12 10:46:44;;;;;;;6.13;3.47;;;;;;;25.41;47.25;95897.91;5113459;28;20051;-66
2023/06/12 10:49:13;;;;;;;12.07;4.00;;;;;;;25.40;47.38;95898.91;5113552;28;20043;-66
2023/06/12 10:51:48;;;;;;;7.47;3.97;;;;;;;25.61;47.33;95891.22;5113463;28;20062;-66
2023/06/12 10:54:25;;;;;;;9.18;3.78;;;;;;;25.68;47.40;95896.75;5113796;28;20051;-66
2023/06/12 10:57:00;;;;;;;5.78;3.72;;;;;;;25.65;49.00;95899.78;5113528;28;20043;-67
2023/06/12 10:59:34;;;;;;;6.32;3.67;;;;;;;25.59;47.66;95895.91;5113462;28;20096;-66
2023/06/12 11:02:01;;;;;;;6.88;3.90;;;;;;;25.73;47.33;95889.03;5113315;28;20044;-66
2023/06/12 11:04:28;;;;;;;9.52;3.53;;;;;;;25.63;44.72;95890.22;5113326;28;20126;-66
2023/06/12 11:06:56;;;;;;;6.38;3.50;;;;;;;25.51;46.38;95893.22;5114789;28;20047;-68
2023/06/12 11:09:25;;;;;;;4.75;3.38;;;;;;;25.21;48.09;95899.09;5117646;28;20078;-66
2023/06/12 11:11:52;;;;;;;8.73;3.80;;;;;;;24.91;49.36;95892.50;5117552;28;20090;-67
2023/06/12 11:14:26;;;;;;;7.05;3.70;;;;;;;24.41;49.03;95908.41;5117783;28;20051;-67
2023/06/12 11:16:58;;;;;;;5.35;2.50;;;;;;;23.82;47.11;95916.06;5117338;28;20396;-66
2023/06/12 11:19:27;;;;;;;8.88;2.30;;;;;;;23.13;47.94;95915.81;5117464;28;20079;-66
2023/06/12 11:21:55;;;;;;;5.20;2.53;;;;;;;22.39;52.96;95928.19;5117454;28;20050;-65
2023/06/12 11:24:23;;;;;;;5.55;3.47;;;;;;;21.73;57.02;95925.41;5117300;28;20446;-67
2023/06/12 11:26:52;;;;;;;5.25;2.35;;;;;;;21.22;58.43;95944.22;5117187;28;20074;-68
2023/06/12 11:29:21;;;;;;;6.57;2.78;;;;;;;20.83;59.34;95945.03;5117140;28;20052;-66
2023/06/12 11:31:50;;;;;;;3.83;2.08;;;;;;;20.53;59.07;95952.06;5117132;28;20059;-67
2023/06/12 11:34:17;;;;;;;6.72;2.35;;;;;;;20.26;59.87;95957.00;5117105;28;20048;-66
2023/06/12 11:36:45;;;;;;;5.57;1.70;;;;;;;20.07;59.43;95966.56;5117171;28;20382;-68
2023/06/12 11:39:18;;;;;;;2.20;2.00;;;;;;;19.93;60.99;95966.88;5116984;28;20051;-66